sensor_id;sensor_type;location;lat;lon;timestamp;pressure;altitude;pressure_sealevel;temperature;humidity
17362;BME280;8798;51.938;4.348;2023-08-20T00:00:59;101551.72;;;21.45;61.26
17362;BME280;8798;51.938;4.348;2023-08-20T00:03:29;101572.97;;;21.50;61.37
17362;BME280;8798;51.938;4.348;2023-08-20T00:05:58;101607.91;;;21.55;61.90
17362;BME280;8798;51.938;4.348;2023-08-20T00:08:26;101636.72;;;21.57;61.67
17362;BME280;8798;51.938;4.348;2023-08-20T00:10:55;101640.94;;;21.60;61.64
17362;BME280;8798;51.938;4.348;2023-08-20T00:13:23;101654.41;;;21.61;61.67
17362;BME280;8798;51.938;4.348;2023-08-20T00:15:51;101672.50;;;21.62;62.21
17362;BME280;8798;51.938;4.348;2023-08-20T00:18:20;101682.38;;;21.63;61.79
17362;BME280;8798;51.938;4.348;2023-08-20T00:20:48;101682.59;;;21.62;62.08
17362;BME280;8798;51.938;4.348;2023-08-20T00:23:17;101672.91;;;21.59;61.85
17362;BME280;8798;51.938;4.348;2023-08-20T00:25:46;101665.31;;;21.55;62.33
17362;BME280;8798;51.938;4.348;2023-08-20T00:28:15;101665.50;;;21.53;62.41
17362;BME280;8798;51.938;4.348;2023-08-20T00:30:43;101676.25;;;21.55;62.10
17362;BME280;8798;51.938;4.348;2023-08-20T00:33:11;101700.47;;;21.58;62.54
17362;BME280;8798;51.938;4.348;2023-08-20T00:35:39;101713.94;;;21.59;62.55
17362;BME280;8798;51.938;4.348;2023-08-20T00:38:07;101722.97;;;21.60;62.70
17362;BME280;8798;51.938;4.348;2023-08-20T00:40:35;101717.94;;;21.57;62.64
17362;BME280;8798;51.938;4.348;2023-08-20T00:43:03;101705.50;;;21.54;62.82
17362;BME280;8798;51.938;4.348;2023-08-20T00:45:34;101692.44;;;21.50;62.79
17362;BME280;8798;51.938;4.348;2023-08-20T00:48:04;101686.75;;;21.44;62.83
17362;BME280;8798;51.938;4.348;2023-08-20T00:50:33;101678.94;;;21.41;63.08
17362;BME280;8798;51.938;4.348;2023-08-20T00:53:02;101688.81;;;21.42;63.17
17362;BME280;8798;51.938;4.348;2023-08-20T00:55:30;101706.91;;;21.43;63.19
17362;BME280;8798;51.938;4.348;2023-08-20T00:57:58;101719.13;;;21.47;63.33
17362;BME280;8798;51.938;4.348;2023-08-20T01:00:26;101737.03;;;21.50;62.97
17362;BME280;8798;51.938;4.348;2023-08-20T01:02:56;101769.44;;;21.53;63.19
17362;BME280;8798;51.938;4.348;2023-08-20T01:05:24;101784.59;;;21.56;63.24
17362;BME280;8798;51.938;4.348;2023-08-20T01:08:00;101791.75;;;21.57;63.19
17362;BME280;8798;51.938;4.348;2023-08-20T01:10:40;101790.72;;;21.58;63.58
17362;BME280;8798;51.938;4.348;2023-08-20T01:13:10;101804.38;;;21.58;63.71
17362;BME280;8798;51.938;4.348;2023-08-20T01:15:39;101815.97;;;21.60;63.24
17362;BME280;8798;51.938;4.348;2023-08-20T01:18:08;101814.28;;;21.59;63.42
17362;BME280;8798;51.938;4.348;2023-08-20T01:20:39;101815.53;;;21.56;63.75
17362;BME280;8798;51.938;4.348;2023-08-20T01:26:24;101769.78;;;21.43;63.94
17362;BME280;8798;51.938;4.348;2023-08-20T01:28:56;101744.25;;;21.36;64.08
17362;BME280;8798;51.938;4.348;2023-08-20T01:31:25;101711.63;;;21.28;63.91
17362;BME280;8798;51.938;4.348;2023-08-20T01:33:53;101693.31;;;21.22;63.89
17362;BME280;8798;51.938;4.348;2023-08-20T01:36:24;101679.59;;;21.15;64.24
17362;BME280;8798;51.938;4.348;2023-08-20T01:38:52;101655.81;;;21.09;64.27
17362;BME280;8798;51.938;4.348;2023-08-20T01:41:20;101642.78;;;21.04;64.13
17362;BME280;8798;51.938;4.348;2023-08-20T01:43:48;101631.38;;;21.01;64.28
17362;BME280;8798;51.938;4.348;2023-08-20T01:46:17;101629.25;;;20.96;64.15
17362;BME280;8798;51.938;4.348;2023-08-20T01:48:45;101620.41;;;20.94;64.18
17362;BME280;8798;51.938;4.348;2023-08-20T01:51:13;101634.94;;;20.95;64.50
17362;BME280;8798;51.938;4.348;2023-08-20T01:53:41;101644.16;;;20.94;64.56
17362;BME280;8798;51.938;4.348;2023-08-20T01:56:13;101634.28;;;20.93;64.69
17362;BME280;8798;51.938;4.348;2023-08-20T01:58:41;101647.94;;;20.93;64.93
17362;BME280;8798;51.938;4.348;2023-08-20T02:01:09;101653.59;;;20.91;64.71
17362;BME280;8798;51.938;4.348;2023-08-20T02:03:38;101649.38;;;20.89;64.78
17362;BME280;8798;51.938;4.348;2023-08-20T02:06:06;101641.59;;;20.86;64.83
17362;BME280;8798;51.938;4.348;2023-08-20T02:08:34;101640.09;;;20.83;64.98
17362;BME280;8798;51.938;4.348;2023-08-20T02:11:03;101635.25;;;20.78;65.03
17362;BME280;8798;51.938;4.348;2023-08-20T02:13:32;101629.13;;;20.76;65.14
17362;BME280;8798;51.938;4.348;2023-08-20T02:16:01;101618.63;;;20.73;65.33
17362;BME280;8798;51.938;4.348;2023-08-20T02:18:29;101625.31;;;20.71;65.20
17362;BME280;8798;51.938;4.348;2023-08-20T02:20:59;101618.38;;;20.68;65.06
17362;BME280;8798;51.938;4.348;2023-08-20T02:23:27;101612.25;;;20.66;65.41
17362;BME280;8798;51.938;4.348;2023-08-20T02:25:56;101605.50;;;20.62;65.49
17362;BME280;8798;51.938;4.348;2023-08-20T02:28:24;101588.88;;;20.57;65.59
17362;BME280;8798;51.938;4.348;2023-08-20T02:30:52;101591.16;;;20.53;65.36
17362;BME280;8798;51.938;4.348;2023-08-20T02:33:20;101588.59;;;20.52;65.69
17362;BME280;8798;51.938;4.348;2023-08-20T02:35:48;101611.94;;;20.54;65.88
17362;BME280;8798;51.938;4.348;2023-08-20T02:38:17;101635.09;;;20.58;65.72
17362;BME280;8798;51.938;4.348;2023-08-20T02:40:46;101653.81;;;20.61;65.94
17362;BME280;8798;51.938;4.348;2023-08-20T02:43:14;101665.56;;;20.62;65.77
17362;BME280;8798;51.938;4.348;2023-08-20T02:45:42;101671.25;;;20.60;65.82
17362;BME280;8798;51.938;4.348;2023-08-20T02:48:11;101658.84;;;20.58;65.92
17362;BME280;8798;51.938;4.348;2023-08-20T02:50:39;101654.78;;;20.54;66.22
17362;BME280;8798;51.938;4.348;2023-08-20T02:53:07;101641.72;;;20.49;66.13
17362;BME280;8798;51.938;4.348;2023-08-20T02:55:36;101627.81;;;20.44;66.25
17362;BME280;8798;51.938;4.348;2023-08-20T02:58:04;101612.25;;;20.38;66.33
17362;BME280;8798;51.938;4.348;2023-08-20T03:00:34;101600.03;;;20.34;66.41
17362;BME280;8798;51.938;4.348;2023-08-20T03:03:03;101605.03;;;20.30;66.34
17362;BME280;8798;51.938;4.348;2023-08-20T03:05:32;101584.44;;;20.28;66.79
17362;BME280;8798;51.938;4.348;2023-08-20T03:08:00;101583.16;;;20.24;66.50
17362;BME280;8798;51.938;4.348;2023-08-20T03:10:30;101579.97;;;20.20;66.47
17362;BME280;8798;51.938;4.348;2023-08-20T03:12:59;101584.78;;;20.18;66.70
17362;BME280;8798;51.938;4.348;2023-08-20T03:15:27;101582.44;;;20.15;66.63
17362;BME280;8798;51.938;4.348;2023-08-20T03:17:55;101585.38;;;20.13;66.83
17362;BME280;8798;51.938;4.348;2023-08-20T03:20:24;101575.69;;;20.11;66.83
17362;BME280;8798;51.938;4.348;2023-08-20T03:22:51;101570.63;;;20.08;66.93
17362;BME280;8798;51.938;4.348;2023-08-20T03:25:19;101569.13;;;20.05;66.86
17362;BME280;8798;51.938;4.348;2023-08-20T03:27:47;101568.50;;;20.03;66.94
17362;BME280;8798;51.938;4.348;2023-08-20T03:30:17;101561.75;;;19.99;67.10
17362;BME280;8798;51.938;4.348;2023-08-20T03:32:45;101559.41;;;19.96;67.16
17362;BME280;8798;51.938;4.348;2023-08-20T03:35:13;101558.09;;;19.92;67.15
17362;BME280;8798;51.938;4.348;2023-08-20T03:37:42;101561.88;;;19.91;67.20
17362;BME280;8798;51.938;4.348;2023-08-20T03:40:10;101562.06;;;19.89;66.96
17362;BME280;8798;51.938;4.348;2023-08-20T03:42:38;101562.47;;;19.86;67.48
17362;BME280;8798;51.938;4.348;2023-08-20T03:45:07;101553.63;;;19.84;67.39
17362;BME280;8798;51.938;4.348;2023-08-20T03:47:36;101559.50;;;19.81;67.31
17362;BME280;8798;51.938;4.348;2023-08-20T03:50:05;101562.59;;;19.78;67.47
17362;BME280;8798;51.938;4.348;2023-08-20T03:52:34;101552.91;;;19.75;67.77
17362;BME280;8798;51.938;4.348;2023-08-20T03:55:02;101546.84;;;19.73;67.72
17362;BME280;8798;51.938;4.348;2023-08-20T03:57:30;101555.38;;;19.70;67.82
17362;BME280;8798;51.938;4.348;2023-08-20T03:59:58;101552.88;;;19.69;67.74
17362;BME280;8798;51.938;4.348;2023-08-20T04:02:26;101552.19;;;19.67;67.79
17362;BME280;8798;51.938;4.348;2023-08-20T04:04:58;101555.31;;;19.64;67.83
17362;BME280;8798;51.938;4.348;2023-08-20T04:07:26;101555.47;;;19.62;67.99
17362;BME280;8798;51.938;4.348;2023-08-20T04:09:54;101550.44;;;19.59;67.99
17362;BME280;8798;51.938;4.348;2023-08-20T04:12:22;101546.22;;;19.57;68.18
17362;BME280;8798;51.938;4.348;2023-08-20T04:14:50;101554.56;;;19.55;68.17
17362;BME280;8798;51.938;4.348;2023-08-20T04:17:18;101549.50;;;19.52;68.11
17362;BME280;8798;51.938;4.348;2023-08-20T04:19:46;101550.94;;;19.48;68.11
17362;BME280;8798;51.938;4.348;2023-08-20T04:22:15;101538.75;;;19.44;68.31
17362;BME280;8798;51.938;4.348;2023-08-20T04:24:43;101534.53;;;19.41;68.49
17362;BME280;8798;51.938;4.348;2023-08-20T04:27:11;101538.47;;;19.39;68.43
17362;BME280;8798;51.938;4.348;2023-08-20T04:29:39;101542.22;;;19.38;68.46
17362;BME280;8798;51.938;4.348;2023-08-20T04:32:07;101549.56;;;19.37;68.49
17362;BME280;8798;51.938;4.348;2023-08-20T04:34:35;101558.75;;;19.36;68.57
17362;BME280;8798;51.938;4.348;2023-08-20T04:37:03;101562.53;;;19.35;68.65
17362;BME280;8798;51.938;4.348;2023-08-20T04:39:33;101567.13;;;19.34;68.82
17362;BME280;8798;51.938;4.348;2023-08-20T04:42:01;101574.47;;;19.34;68.77
17362;BME280;8798;51.938;4.348;2023-08-20T04:44:28;101578.44;;;19.31;68.87
17362;BME280;8798;51.938;4.348;2023-08-20T04:46:56;101577.78;;;19.29;69.15
17362;BME280;8798;51.938;4.348;2023-08-20T04:49:24;101579.00;;;19.27;68.98
17362;BME280;8798;51.938;4.348;2023-08-20T04:51:55;101593.47;;;19.27;69.07
17362;BME280;8798;51.938;4.348;2023-08-20T04:54:23;101599.75;;;19.28;69.25
17362;BME280;8798;51.938;4.348;2023-08-20T04:56:52;101607.09;;;19.27;69.24
17362;BME280;8798;51.938;4.348;2023-08-20T04:59:20;101620.72;;;19.27;69.51
17362;BME280;8798;51.938;4.348;2023-08-20T05:01:48;101620.88;;;19.26;69.29
17362;BME280;8798;51.938;4.348;2023-08-20T05:04:16;101621.28;;;19.23;69.35
17362;BME280;8798;51.938;4.348;2023-08-20T05:06:44;101607.19;;;19.19;69.65
17362;BME280;8798;51.938;4.348;2023-08-20T05:09:12;101622.50;;;19.20;69.63
17362;BME280;8798;51.938;4.348;2023-08-20T05:11:42;101634.44;;;19.19;69.82
17362;BME280;8798;51.938;4.348;2023-08-20T05:14:11;101637.34;;;19.18;70.13
17362;BME280;8798;51.938;4.348;2023-08-20T05:16:39;101645.34;;;19.19;69.75
17362;BME280;8798;51.938;4.348;2023-08-20T05:19:07;101661.69;;;19.19;69.92
17362;BME280;8798;51.938;4.348;2023-08-20T05:21:35;101666.09;;;19.20;70.23
17362;BME280;8798;51.938;4.348;2023-08-20T05:24:04;101678.88;;;19.20;70.13
17362;BME280;8798;51.938;4.348;2023-08-20T05:26:32;101696.06;;;19.20;70.52
17362;BME280;8798;51.938;4.348;2023-08-20T05:29:02;101709.28;;;19.23;70.13
17362;BME280;8798;51.938;4.348;2023-08-20T05:31:32;101737.19;;;19.25;70.51
17362;BME280;8798;51.938;4.348;2023-08-20T05:34:00;101757.59;;;19.29;70.54
17362;BME280;8798;51.938;4.348;2023-08-20T05:36:28;101770.00;;;19.32;70.50
17362;BME280;8798;51.938;4.348;2023-08-20T05:38:56;101787.84;;;19.34;70.53
17362;BME280;8798;51.938;4.348;2023-08-20T05:41:23;101799.44;;;19.37;70.69
17362;BME280;8798;51.938;4.348;2023-08-20T05:43:51;101812.84;;;19.38;70.55
17362;BME280;8798;51.938;4.348;2023-08-20T05:46:19;101830.69;;;19.41;70.95
17362;BME280;8798;51.938;4.348;2023-08-20T05:48:49;101840.59;;;19.42;70.75
17362;BME280;8798;51.938;4.348;2023-08-20T05:51:19;101864.91;;;19.43;70.85
17362;BME280;8798;51.938;4.348;2023-08-20T05:53:47;101879.22;;;19.45;70.81
17362;BME280;8798;51.938;4.348;2023-08-20T05:56:15;101884.50;;;19.47;71.02
17362;BME280;8798;51.938;4.348;2023-08-20T05:58:43;101900.47;;;19.50;71.20
17362;BME280;8798;51.938;4.348;2023-08-20T06:01:11;101922.75;;;19.53;70.68
17362;BME280;8798;51.938;4.348;2023-08-20T06:03:39;101935.19;;;19.56;71.22
17362;BME280;8798;51.938;4.348;2023-08-20T06:06:08;101958.28;;;19.60;71.46
17362;BME280;8798;51.938;4.348;2023-08-20T06:08:36;101988.56;;;19.65;71.31
17362;BME280;8798;51.938;4.348;2023-08-20T06:11:04;102014.50;;;19.69;71.15
17362;BME280;8798;51.938;4.348;2023-08-20T06:13:32;102021.28;;;19.73;71.42
17362;BME280;8798;51.938;4.348;2023-08-20T06:16:00;102051.75;;;19.77;71.41
17362;BME280;8798;51.938;4.348;2023-08-20T06:18:32;102060.44;;;19.81;71.46
17362;BME280;8798;51.938;4.348;2023-08-20T06:20:59;102083.56;;;19.85;71.39
17362;BME280;8798;51.938;4.348;2023-08-20T06:23:29;102103.16;;;19.88;71.44
17362;BME280;8798;51.938;4.348;2023-08-20T06:26:10;102115.56;;;19.91;71.50
17362;BME280;8798;51.938;4.348;2023-08-20T06:28:38;102132.41;;;19.94;71.78
17362;BME280;8798;51.938;4.348;2023-08-20T06:31:06;102154.75;;;19.98;71.66
17362;BME280;8798;51.938;4.348;2023-08-20T06:33:34;102169.53;;;20.04;71.80
17362;BME280;8798;51.938;4.348;2023-08-20T06:36:02;102175.44;;;20.07;71.82
17362;BME280;8798;51.938;4.348;2023-08-20T06:38:31;102202.41;;;20.10;71.83
17362;BME280;8798;51.938;4.348;2023-08-20T06:40:59;102222.81;;;20.14;71.92
17362;BME280;8798;51.938;4.348;2023-08-20T06:43:27;102237.59;;;20.20;72.24
17362;BME280;8798;51.938;4.348;2023-08-20T06:45:55;102256.16;;;20.25;72.04
17362;BME280;8798;51.938;4.348;2023-08-20T06:48:24;102268.59;;;20.27;72.43
17362;BME280;8798;51.938;4.348;2023-08-20T06:50:53;102279.19;;;20.30;72.57
17362;BME280;8798;51.938;4.348;2023-08-20T06:53:21;102300.44;;;20.35;72.23
17362;BME280;8798;51.938;4.348;2023-08-20T06:55:50;102311.88;;;20.38;72.22
17362;BME280;8798;51.938;4.348;2023-08-20T06:58:18;102316.28;;;20.39;72.36
17362;BME280;8798;51.938;4.348;2023-08-20T07:00:46;102323.47;;;20.40;72.43
17362;BME280;8798;51.938;4.348;2023-08-20T07:03:14;102327.72;;;20.43;72.43
17362;BME280;8798;51.938;4.348;2023-08-20T07:05:42;102340.16;;;20.46;72.40
17362;BME280;8798;51.938;4.348;2023-08-20T07:08:10;102359.59;;;20.51;72.46
17362;BME280;8798;51.938;4.348;2023-08-20T07:10:38;102370.97;;;20.54;72.47
17362;BME280;8798;51.938;4.348;2023-08-20T07:13:07;102379.88;;;20.56;72.59
17362;BME280;8798;51.938;4.348;2023-08-20T07:15:35;102386.00;;;20.58;72.51
17362;BME280;8798;51.938;4.348;2023-08-20T07:18:04;102402.88;;;20.62;72.64
17362;BME280;8798;51.938;4.348;2023-08-20T07:20:32;102410.53;;;20.67;72.67
17362;BME280;8798;51.938;4.348;2023-08-20T07:23:00;102439.19;;;20.71;72.55
17362;BME280;8798;51.938;4.348;2023-08-20T07:25:31;102443.63;;;20.72;72.85
17362;BME280;8798;51.938;4.348;2023-08-20T07:27:58;102448.53;;;20.76;72.62
17362;BME280;8798;51.938;4.348;2023-08-20T07:30:28;102471.56;;;20.82;72.94
17362;BME280;8798;51.938;4.348;2023-08-20T07:32:56;102477.38;;;20.87;72.85
17362;BME280;8798;51.938;4.348;2023-08-20T07:35:30;102505.00;;;20.92;72.51
17362;BME280;8798;51.938;4.348;2023-08-20T07:37:58;102521.69;;;20.97;72.90
17362;BME280;8798;51.938;4.348;2023-08-20T07:40:26;102550.19;;;21.03;72.94
17362;BME280;8798;51.938;4.348;2023-08-20T07:42:54;102566.72;;;21.10;72.80
17362;BME280;8798;51.938;4.348;2023-08-20T07:45:22;102589.75;;;21.15;72.73
17362;BME280;8798;51.938;4.348;2023-08-20T07:47:52;102601.84;;;21.21;72.86
17362;BME280;8798;51.938;4.348;2023-08-20T07:50:22;102622.16;;;21.26;72.75
17362;BME280;8798;51.938;4.348;2023-08-20T07:52:50;102647.75;;;21.34;72.89
17362;BME280;8798;51.938;4.348;2023-08-20T07:55:18;102678.84;;;21.41;72.55
17362;BME280;8798;51.938;4.348;2023-08-20T07:57:46;102692.50;;;21.49;72.38
17362;BME280;8798;51.938;4.348;2023-08-20T08:00:16;102729.91;;;21.57;72.53
17362;BME280;8798;51.938;4.348;2023-08-20T08:02:45;102755.31;;;21.65;72.38
17362;BME280;8798;51.938;4.348;2023-08-20T08:05:14;102786.25;;;21.74;72.45
17362;BME280;8798;51.938;4.348;2023-08-20T08:07:42;102825.19;;;21.84;72.05
17362;BME280;8798;51.938;4.348;2023-08-20T08:10:10;102864.63;;;21.98;71.93
17362;BME280;8798;51.938;4.348;2023-08-20T08:12:38;102957.84;;;22.21;71.63
17362;BME280;8798;51.938;4.348;2023-08-20T08:15:06;103124.28;;;22.59;72.14
17362;BME280;8798;51.938;4.348;2023-08-20T08:17:34;103410.00;;;23.26;72.18
17362;BME280;8798;51.938;4.348;2023-08-20T08:20:03;103794.44;;;24.16;71.42
17362;BME280;8798;51.938;4.348;2023-08-20T08:22:32;104162.75;;;25.01;71.39
17362;BME280;8798;51.938;4.348;2023-08-20T08:25:00;104549.63;;;25.92;70.89
17362;BME280;8798;51.938;4.348;2023-08-20T08:27:31;104917.22;;;26.80;71.03
17362;BME280;8798;51.938;4.348;2023-08-20T08:30:12;105208.72;;;27.55;70.23
17362;BME280;8798;51.938;4.348;2023-08-20T08:32:41;105467.94;;;28.24;69.28
17362;BME280;8798;51.938;4.348;2023-08-20T08:35:09;105762.94;;;29.00;68.55
17362;BME280;8798;51.938;4.348;2023-08-20T08:37:38;106119.88;;;29.91;68.34
17362;BME280;8798;51.938;4.348;2023-08-20T08:40:07;106396.50;;;30.67;67.39
17362;BME280;8798;51.938;4.348;2023-08-20T08:42:36;106653.53;;;31.39;66.41
17362;BME280;8798;51.938;4.348;2023-08-20T08:45:04;106769.66;;;31.84;66.13
17362;BME280;8798;51.938;4.348;2023-08-20T08:47:33;106671.66;;;31.90;64.86
17362;BME280;8798;51.938;4.348;2023-08-20T08:50:03;106668.63;;;32.11;63.73
17362;BME280;8798;51.938;4.348;2023-08-20T08:52:32;106853.81;;;32.72;63.24
17362;BME280;8798;51.938;4.348;2023-08-20T08:55:02;107044.75;;;33.33;62.48
17362;BME280;8798;51.938;4.348;2023-08-20T08:57:31;107167.38;;;33.81;61.05
17362;BME280;8798;51.938;4.348;2023-08-20T08:59:59;107155.59;;;34.05;60.83
17362;BME280;8798;51.938;4.348;2023-08-20T09:02:27;107294.59;;;34.59;59.75
17362;BME280;8798;51.938;4.348;2023-08-20T09:04:56;107484.13;;;35.20;58.98
17362;BME280;8798;51.938;4.348;2023-08-20T09:07:24;107528.97;;;35.56;58.04
17362;BME280;8798;51.938;4.348;2023-08-20T09:09:57;107486.66;;;35.77;57.37
17362;BME280;8798;51.938;4.348;2023-08-20T09:12:27;107483.72;;;36.05;56.34
17362;BME280;8798;51.938;4.348;2023-08-20T09:14:55;107385.75;;;36.13;55.03
17362;BME280;8798;51.938;4.348;2023-08-20T09:17:28;107118.69;;;35.86;54.88
17362;BME280;8798;51.938;4.348;2023-08-20T09:19:57;106796.56;;;35.45;54.10
17362;BME280;8798;51.938;4.348;2023-08-20T09:22:26;106450.91;;;35.02;53.42
17362;BME280;8798;51.938;4.348;2023-08-20T09:24:56;106188.41;;;34.67;53.07
17362;BME280;8798;51.938;4.348;2023-08-20T09:27:24;106048.69;;;34.59;52.15
17362;BME280;8798;51.938;4.348;2023-08-20T09:29:55;105941.97;;;34.56;51.80
17362;BME280;8798;51.938;4.348;2023-08-20T09:32:26;105887.25;;;34.61;51.20
17362;BME280;8798;51.938;4.348;2023-08-20T09:34:55;105984.16;;;34.99;50.78
17362;BME280;8798;51.938;4.348;2023-08-20T09:37:24;106131.72;;;35.49;50.73
17362;BME280;8798;51.938;4.348;2023-08-20T09:39:52;106369.78;;;36.17;50.00
17362;BME280;8798;51.938;4.348;2023-08-20T09:42:20;106545.84;;;36.74;49.39
17362;BME280;8798;51.938;4.348;2023-08-20T09:44:48;106534.91;;;36.94;49.10
17362;BME280;8798;51.938;4.348;2023-08-20T09:47:20;106506.53;;;37.12;48.58
17362;BME280;8798;51.938;4.348;2023-08-20T09:49:52;106471.06;;;37.26;48.13
17362;BME280;8798;51.938;4.348;2023-08-20T09:52:25;106451.00;;;37.44;47.82
17362;BME280;8798;51.938;4.348;2023-08-20T09:55:00;106362.25;;;37.50;46.92
17362;BME280;8798;51.938;4.348;2023-08-20T09:57:33;106463.59;;;37.91;46.16
17362;BME280;8798;51.938;4.348;2023-08-20T10:00:04;106638.72;;;38.49;45.46
17362;BME280;8798;51.938;4.348;2023-08-20T10:02:38;106717.84;;;38.89;45.23
17362;BME280;8798;51.938;4.348;2023-08-20T10:05:07;106842.03;;;39.38;44.56
17362;BME280;8798;51.938;4.348;2023-08-20T10:07:36;107002.34;;;39.97;44.11
17362;BME280;8798;51.938;4.348;2023-08-20T10:10:06;107154.94;;;40.52;43.57
17362;BME280;8798;51.938;4.348;2023-08-20T10:12:35;107116.69;;;40.71;42.91
17362;BME280;8798;51.938;4.348;2023-08-20T10:15:08;107191.25;;;41.11;42.54
17362;BME280;8798;51.938;4.348;2023-08-20T10:17:39;107329.88;;;41.66;41.96
17362;BME280;8798;51.938;4.348;2023-08-20T10:20:09;107407.81;;;42.10;41.00
17362;BME280;8798;51.938;4.348;2023-08-20T10:22:38;107412.13;;;42.41;40.22
17362;BME280;8798;51.938;4.348;2023-08-20T10:25:08;107387.16;;;42.64;40.31
17362;BME280;8798;51.938;4.348;2023-08-20T10:27:41;107230.97;;;42.61;40.01
17362;BME280;8798;51.938;4.348;2023-08-20T10:30:10;107100.31;;;42.64;38.65
17362;BME280;8798;51.938;4.348;2023-08-20T10:32:50;107009.25;;;42.73;38.10
17362;BME280;8798;51.938;4.348;2023-08-20T10:35:22;106728.06;;;42.41;37.96
17362;BME280;8798;51.938;4.348;2023-08-20T10:38:01;106383.28;;;41.95;37.52
17362;BME280;8798;51.938;4.348;2023-08-20T10:40:51;106006.22;;;41.40;37.30
17362;BME280;8798;51.938;4.348;2023-08-20T10:43:30;105838.00;;;41.26;36.80
17362;BME280;8798;51.938;4.348;2023-08-20T10:46:17;105873.00;;;41.55;36.29
17362;BME280;8798;51.938;4.348;2023-08-20T10:48:51;105823.47;;;41.64;35.74
17362;BME280;8798;51.938;4.348;2023-08-20T10:51:24;105735.28;;;41.62;35.62
17362;BME280;8798;51.938;4.348;2023-08-20T10:54:04;105648.03;;;41.66;34.97
17362;BME280;8798;51.938;4.348;2023-08-20T10:56:40;105639.88;;;41.81;34.63
17362;BME280;8798;51.938;4.348;2023-08-20T10:59:12;105494.06;;;41.68;34.51
17362;BME280;8798;51.938;4.348;2023-08-20T11:01:44;105692.88;;;42.26;34.28
17362;BME280;8798;51.938;4.348;2023-08-20T11:04:15;105863.88;;;42.83;33.84
17362;BME280;8798;51.938;4.348;2023-08-20T11:06:43;105807.94;;;42.90;33.94
17362;BME280;8798;51.938;4.348;2023-08-20T11:09:11;105821.13;;;43.13;33.73
17362;BME280;8798;51.938;4.348;2023-08-20T11:11:41;105789.91;;;43.25;33.07
17362;BME280;8798;51.938;4.348;2023-08-20T11:14:12;105636.06;;;43.07;32.73
17362;BME280;8798;51.938;4.348;2023-08-20T11:16:41;105631.84;;;43.27;32.51
17362;BME280;8798;51.938;4.348;2023-08-20T11:19:10;105684.16;;;43.58;32.08
17362;BME280;8798;51.938;4.348;2023-08-20T11:21:41;105713.13;;;43.82;31.75
17362;BME280;8798;51.938;4.348;2023-08-20T11:24:10;105731.09;;;44.05;31.50
17362;BME280;8798;51.938;4.348;2023-08-20T11:26:39;105898.13;;;44.62;31.25
17362;BME280;8798;51.938;4.348;2023-08-20T11:29:09;106025.69;;;45.07;31.12
17362;BME280;8798;51.938;4.348;2023-08-20T11:31:39;106183.66;;;45.64;30.47
17362;BME280;8798;51.938;4.348;2023-08-20T11:34:07;106032.22;;;45.52;30.30
17362;BME280;8798;51.938;4.348;2023-08-20T11:36:35;105739.31;;;45.10;30.44
17362;BME280;8798;51.938;4.348;2023-08-20T11:39:05;105458.09;;;44.67;29.97
17362;BME280;8798;51.938;4.348;2023-08-20T11:41:36;105066.47;;;43.99;29.67
17362;BME280;8798;51.938;4.348;2023-08-20T11:44:05;105070.19;;;44.15;29.77
17362;BME280;8798;51.938;4.348;2023-08-20T11:46:33;105191.19;;;44.57;29.18
17362;BME280;8798;51.938;4.348;2023-08-20T11:49:11;105062.31;;;44.42;29.23
17362;BME280;8798;51.938;4.348;2023-08-20T11:51:40;105036.50;;;44.54;28.56
17362;BME280;8798;51.938;4.348;2023-08-20T11:54:11;104869.63;;;44.31;28.86
17362;BME280;8798;51.938;4.348;2023-08-20T11:56:43;104676.00;;;43.99;28.71
17362;BME280;8798;51.938;4.348;2023-08-20T11:59:12;104732.03;;;44.23;28.02
17362;BME280;8798;51.938;4.348;2023-08-20T12:01:40;104104.75;;;42.94;28.53
17362;BME280;8798;51.938;4.348;2023-08-20T12:04:09;103778.28;;;42.26;28.22
17362;BME280;8798;51.938;4.348;2023-08-20T12:06:38;103498.81;;;41.66;27.93
17362;BME280;8798;51.938;4.348;2023-08-20T12:09:19;103033.88;;;40.62;28.30
17362;BME280;8798;51.938;4.348;2023-08-20T12:11:48;102657.59;;;39.75;28.13
17362;BME280;8798;51.938;4.348;2023-08-20T12:14:17;102877.41;;;40.27;28.36
17362;BME280;8798;51.938;4.348;2023-08-20T12:16:49;103047.09;;;40.67;28.32
17362;BME280;8798;51.938;4.348;2023-08-20T12:19:20;103169.09;;;40.96;28.20
17362;BME280;8798;51.938;4.348;2023-08-20T12:21:48;103540.97;;;41.87;28.08
17362;BME280;8798;51.938;4.348;2023-08-20T12:24:17;103453.88;;;41.70;27.98
17362;BME280;8798;51.938;4.348;2023-08-20T12:26:48;103517.44;;;41.92;28.30
17362;BME280;8798;51.938;4.348;2023-08-20T12:29:16;103724.63;;;42.45;27.78
17362;BME280;8798;51.938;4.348;2023-08-20T12:31:44;103928.38;;;42.99;28.20
17362;BME280;8798;51.938;4.348;2023-08-20T12:34:12;104100.34;;;43.46;27.68
17362;BME280;8798;51.938;4.348;2023-08-20T12:36:42;104098.84;;;43.54;27.62
17362;BME280;8798;51.938;4.348;2023-08-20T12:39:10;104095.09;;;43.64;27.59
17362;BME280;8798;51.938;4.348;2023-08-20T12:41:40;104168.50;;;43.89;27.79
17362;BME280;8798;51.938;4.348;2023-08-20T12:44:15;104079.63;;;43.80;27.63
17362;BME280;8798;51.938;4.348;2023-08-20T12:46:43;104139.47;;;44.03;27.33
17362;BME280;8798;51.938;4.348;2023-08-20T12:49:11;104074.59;;;43.96;27.10
17362;BME280;8798;51.938;4.348;2023-08-20T12:51:39;103871.28;;;43.58;27.37
17362;BME280;8798;51.938;4.348;2023-08-20T12:54:06;103337.28;;;42.40;26.87
17362;BME280;8798;51.938;4.348;2023-08-20T12:56:35;102655.66;;;40.82;26.68
17362;BME280;8798;51.938;4.348;2023-08-20T12:59:03;102194.53;;;39.72;27.30
17362;BME280;8798;51.938;4.348;2023-08-20T13:01:32;101798.59;;;38.74;26.92
17362;BME280;8798;51.938;4.348;2023-08-20T13:04:01;101532.78;;;38.02;27.56
17362;BME280;8798;51.938;4.348;2023-08-20T13:06:30;101286.31;;;37.33;27.43
17362;BME280;8798;51.938;4.348;2023-08-20T13:08:58;101129.78;;;36.86;27.58
17362;BME280;8798;51.938;4.348;2023-08-20T13:11:27;101021.53;;;36.50;27.78
17362;BME280;8798;51.938;4.348;2023-08-20T13:13:57;100919.75;;;36.15;28.03